Time,TemperatureF,DewpointF,PressureIn,WindDirection,WindDirectionDegrees,WindSpeedMPH,WindSpeedGustMPH,Humidity,HourlyPrecipIn,Conditions,Clouds,dailyrainin,SoftwareType,DateUTC
2013-01-10 00:00:00,52.5,51.1,30.36,NW,315,0.0,0.0,95,0.00,,CLR,0.00,VWS V14.01,2013-01-10 05:00:00,
2013-01-10 00:01:00,52.5,51.1,30.36,NW,316,0.0,0.0,95,0.00,,,0.00,VWS V14.01,2013-01-10 05:01:00,
2013-01-10 00:06:00,52.4,50.7,30.36,NW,315,0.0,0.0,94,0.00,,,0.00,VWS V14.01,2013-01-10 05:06:00,
2013-01-10 00:11:00,52.3,50.6,30.36,NW,315,0.0,0.0,94,0.00,,,0.00,VWS V14.01,2013-01-10 05:11:00,
2013-01-10 00:15:00,51.4,50.0,30.36,NW,315,0.0,0.0,95,0.00,,CLR,0.00,VWS V14.01,2013-01-10 05:15:00,
2013-01-10 00:16:00,52.1,50.7,30.36,NW,315,0.0,0.0,95,0.00,,,0.00,VWS V14.01,2013-01-10 05:16:00,
2013-01-10 00:21:00,52.0,50.6,30.36,NW,315,0.0,0.0,95,0.00,,,0.00,VWS V14.01,2013-01-10 05:21:00,
2013-01-10 00:30:00,51.7,50.0,30.36,NW,315,0.0,0.0,94,0.00,,,0.00,VWS V14.01,2013-01-10 05:30:00,
2013-01-10 00:36:00,51.4,50.0,30.36,NW,315,0.0,0.0,95,0.00,,,0.00,VWS V14.01,2013-01-10 05:36:00,
2013-01-10 00:45:00,51.0,49.6,30.35,NW,315,0.0,0.0,95,0.00,,,0.00,VWS V14.01,2013-01-10 05:45:00,
2013-01-10 00:51:00,50.8,49.4,30.35,NW,315,0.0,0.0,95,0.00,,,0.00,VWS V14.01,2013-01-10 05:51:00,
2013-01-10 01:00:00,50.7,49.3,30.35,NW,315,0.0,0.0,95,0.00,,,0.00,VWS V14.01,2013-01-10 06:00:00,
2013-01-10 01:06:00,50.8,49.4,30.36,NW,315,0.0,0.0,95,0.00,,,0.00,VWS V14.01,2013-01-10 06:06:00,
2013-01-10 01:15:00,51.4,50.0,30.36,NW,315,0.0,0.0,95,0.00,,,0.00,VWS V14.01,2013-01-10 06:15:00,
2013-01-10 01:21:00,51.5,50.4,30.37,NW,315,0.0,1.0,96,0.00,,,0.00,VWS V14.01,2013-01-10 06:21:00,
2013-01-10 01:30:00,51.4,50.3,30.37,NW,315,0.0,2.0,96,0.00,,,0.00,VWS V14.01,2013-01-10 06:30:00,
2013-01-10 01:36:00,51.5,50.4,30.37,NW,315,1.0,1.0,96,0.00,,,0.00,VWS V14.01,2013-01-10 06:36:00,
2013-01-10 01:45:00,51.8,50.7,30.37,NW,315,0.0,1.0,96,0.00,,,0.00,VWS V14.01,2013-01-10 06:45:00,
2013-01-10 01:51:00,52.1,51.0,30.37,NW,315,0.0,1.0,96,0.00,,,0.00,VWS V14.01,2013-01-10 06:51:00,
2013-01-10 01:56:00,52.5,51.4,30.38,NW,315,0.0,1.0,96,0.00,,,0.00,VWS V14.01,2013-01-10 06:56:00,
2013-01-10 02:00:00,51.4,50.3,30.37,NW,315,0.0,0.0,96,0.00,,CLR,0.00,VWS V14.01,2013-01-10 07:00:00,
2013-01-10 02:01:00,52.8,51.7,30.38,NW,315,0.0,1.0,96,0.00,,,0.00,VWS V14.01,2013-01-10 07:01:00,
2013-01-10 02:11:00,52.8,51.7,30.38,NW,315,0.0,1.0,96,0.00,,,0.00,VWS V14.01,2013-01-10 07:11:00,
2013-01-10 02:15:00,51.4,50.3,30.37,NW,315,0.0,0.0,96,0.00,,CLR,0.00,VWS V14.01,2013-01-10 07:15:00,
2013-01-10 02:16:00,52.7,51.6,30.38,NW,315,0.0,0.0,96,0.00,,,0.00,VWS V14.01,2013-01-10 07:16:00,
2013-01-10 02:26:00,52.1,51.0,30.37,NW,315,0.0,0.0,96,0.00,,,0.00,VWS V14.01,2013-01-10 07:26:00,
2013-01-10 02:30:00,51.4,50.3,30.36,NW,315,0.0,1.0,96,0.00,,CLR,0.00,VWS V14.01,2013-01-10 07:30:00,
2013-01-10 02:36:00,51.5,50.4,30.37,NW,315,0.0,0.0,96,0.00,,,0.00,VWS V14.01,2013-01-10 07:36:00,
2013-01-10 02:41:00,51.4,50.3,30.37,NW,315,0.0,0.0,96,0.00,,,0.00,VWS V14.01,2013-01-10 07:41:00,
2013-01-10 02:45:00,51.3,50.2,30.36,NW,315,0.0,0.0,96,0.00,,CLR,0.00,VWS V14.01,2013-01-10 07:45:00,
2013-01-10 02:51:00,51.1,50.0,30.37,NW,315,0.0,0.0,96,0.00,,,0.00,VWS V14.01,2013-01-10 07:51:00,
2013-01-10 02:56:00,51.3,50.2,30.37,NW,315,0.0,0.0,96,0.00,,,0.00,VWS V14.01,2013-01-10 07:56:00,
2013-01-10 03:00:00,51.1,50.0,30.36,NW,315,0.0,0.0,96,0.00,,CLR,0.00,VWS V14.01,2013-01-10 08:00:00,
2013-01-10 03:06:00,51.4,50.3,30.37,NW,315,0.0,0.0,96,0.00,,,0.00,VWS V14.01,2013-01-10 08:06:00,
2013-01-10 03:11:00,51.4,50.3,30.37,NW,315,0.0,0.0,96,0.00,,,0.00,VWS V14.01,2013-01-10 08:11:00,
2013-01-10 03:15:00,50.9,49.8,30.36,NW,315,0.0,0.0,96,0.00,,CLR,0.00,VWS V14.01,2013-01-10 08:15:00,
2013-01-10 03:20:00,51.3,50.2,30.37,NW,315,0.0,0.0,96,0.00,,,0.00,VWS V14.01,2013-01-10 08:20:00,
2013-01-10 03:30:00,51.4,50.3,30.36,NW,315,0.0,1.0,96,0.00,,,0.00,VWS V14.01,2013-01-10 08:30:00,
2013-01-10 03:35:00,51.4,50.3,30.36,NW,316,0.0,0.0,96,0.00,,,0.00,VWS V14.01,2013-01-10 08:35:00,
2013-01-10 03:40:00,51.4,50.3,30.36,NW,316,0.0,0.0,96,0.00,,,0.00,VWS V14.01,2013-01-10 08:40:00,
2013-01-10 03:45:00,50.5,49.4,30.36,NW,315,0.0,0.0,96,0.00,,CLR,0.00,VWS V14.01,2013-01-10 08:45:00,
2013-01-10 03:50:00,51.2,50.1,30.36,NW,315,0.0,0.0,96,0.00,,,0.00,VWS V14.01,2013-01-10 08:50:00,
2013-01-10 03:55:00,51.1,50.0,30.36,NW,315,0.0,0.0,96,0.00,,,0.00,VWS V14.01,2013-01-10 08:55:00,
2013-01-10 04:00:00,50.2,49.1,30.36,NW,315,0.0,0.0,96,0.00,,CLR,0.00,VWS V14.01,2013-01-10 09:00:00,
2013-01-10 04:05:00,51.0,49.9,30.36,NW,315,0.0,0.0,96,0.00,,,0.00,VWS V14.01,2013-01-10 09:05:00,
2013-01-10 04:10:00,51.0,49.9,30.36,NW,315,0.0,0.0,96,0.00,,,0.00,VWS V14.01,2013-01-10 09:10:00,
2013-01-10 04:15:00,50.1,49.0,30.36,NW,315,0.0,0.0,96,0.00,,CLR,0.00,VWS V14.01,2013-01-10 09:15:00,
2013-01-10 04:20:00,50.8,49.7,30.36,NW,315,0.0,0.0,96,0.00,,,0.00,VWS V14.01,2013-01-10 09:20:00,
2013-01-10 04:25:00,50.7,49.6,30.36,NW,315,0.0,1.0,96,0.00,,,0.00,VWS V14.01,2013-01-10 09:25:00,
2013-01-10 04:30:00,49.9,48.8,30.36,NW,315,0.0,0.0,96,0.00,,CLR,0.00,VWS V14.01,2013-01-10 09:30:00,
2013-01-10 04:35:00,50.7,49.6,30.36,NW,315,0.0,0.0,96,0.00,,,0.00,VWS V14.01,2013-01-10 09:35:00,
2013-01-10 04:40:00,50.6,49.5,30.36,NW,315,0.0,0.0,96,0.00,,,0.00,VWS V14.01,2013-01-10 09:40:00,
2013-01-10 04:45:00,50.1,49.3,30.36,NW,315,0.0,0.0,97,0.00,,CLR,0.00,VWS V14.01,2013-01-10 09:45:00,
2013-01-10 04:50:00,50.3,49.2,30.36,NW,315,0.0,0.0,96,0.00,,,0.00,VWS V14.01,2013-01-10 09:50:00,
2013-01-10 04:55:00,50.2,49.1,30.36,NW,315,0.0,0.0,96,0.00,,,0.00,VWS V14.01,2013-01-10 09:55:00,
2013-01-10 05:00:00,50.5,49.7,30.36,NW,315,0.0,0.0,97,0.00,,CLR,0.00,VWS V14.01,2013-01-10 10:00:00,
2013-01-10 05:05:00,50.1,49.0,30.36,NW,316,0.0,0.0,96,0.00,,,0.00,VWS V14.01,2013-01-10 10:05:00,
2013-01-10 05:10:00,50.1,49.0,30.36,NW,315,0.0,0.0,96,0.00,,,0.00,VWS V14.01,2013-01-10 10:10:00,
2013-01-10 05:15:00,50.1,49.0,30.36,NW,315,0.0,0.0,96,0.00,,,0.00,VWS V14.01,2013-01-10 10:15:00,
2013-01-10 05:25:00,50.0,48.9,30.36,NW,315,0.0,0.0,96,0.00,,,0.00,VWS V14.01,2013-01-10 10:25:00,
2013-01-10 05:30:00,50.5,49.7,30.37,NW,315,0.0,0.0,97,0.00,,CLR,0.00,VWS V14.01,2013-01-10 10:30:00,
2013-01-10 05:35:00,49.9,48.8,30.36,NW,315,0.0,0.0,96,0.00,,,0.00,VWS V14.01,2013-01-10 10:35:00,
2013-01-10 05:40:00,50.0,49.2,30.36,NW,316,0.0,0.0,97,0.00,,,0.00,VWS V14.01,2013-01-10 10:40:00,
2013-01-10 05:45:00,50.1,49.3,30.36,NW,315,0.0,0.0,97,0.00,,,0.00,VWS V14.01,2013-01-10 10:45:00,
2013-01-10 05:50:00,50.3,49.5,30.36,NW,315,0.0,0.0,97,0.00,,,0.00,VWS V14.01,2013-01-10 10:50:00,
2013-01-10 06:00:00,50.5,49.7,30.36,NW,315,0.0,0.0,97,0.00,,,0.00,VWS V14.01,2013-01-10 11:00:00,
2013-01-10 06:05:00,50.6,49.8,30.36,NW,315,0.0,0.0,97,0.00,,,0.00,VWS V14.01,2013-01-10 11:05:00,
2013-01-10 06:15:00,50.5,49.7,30.37,NW,315,0.0,0.0,97,0.00,,,0.00,VWS V14.01,2013-01-10 11:15:00,
2013-01-10 06:20:00,50.5,49.7,30.37,NW,315,0.0,0.0,97,0.00,,,0.00,VWS V14.01,2013-01-10 11:20:00,
2013-01-10 06:25:00,50.5,49.7,30.37,NW,315,0.0,0.0,97,0.00,,,0.00,VWS V14.01,2013-01-10 11:25:00,
2013-01-10 06:30:00,50.5,49.7,30.37,NW,315,0.0,0.0,97,0.00,,,0.00,VWS V14.01,2013-01-10 11:30:00,
2013-01-10 06:40:00,50.5,49.7,30.38,NW,315,0.0,0.0,97,0.00,,,0.00,VWS V14.01,2013-01-10 11:40:00,
2013-01-10 06:45:00,50.5,49.7,30.38,NW,315,0.0,0.0,97,0.00,,,0.00,VWS V14.01,2013-01-10 11:45:00,
2013-01-10 06:55:00,50.5,49.7,30.39,NW,315,0.0,0.0,97,0.00,,,0.00,VWS V14.01,2013-01-10 11:55:00,
2013-01-10 07:00:00,50.4,49.6,30.39,NW,315,0.0,0.0,97,0.00,,,0.00,VWS V14.01,2013-01-10 12:00:00,
2013-01-10 07:10:00,50.4,49.6,30.39,NW,315,0.0,0.0,97,0.00,,CLR,0.00,VWS V14.01,2013-01-10 12:10:00,
2013-01-10 07:15:00,50.3,49.5,30.39,NW,315,0.0,0.0,97,0.00,,CLR,0.00,VWS V14.01,2013-01-10 12:15:00,
2013-01-10 07:25:00,50.3,49.5,30.39,NW,315,0.0,0.0,97,0.00,,CLR,0.00,VWS V14.01,2013-01-10 12:25:00,
2013-01-10 07:29:00,50.3,49.5,30.39,NW,315,0.0,0.0,97,0.00,,CLR,0.00,VWS V14.01,2013-01-10 12:29:00,
2013-01-10 07:30:00,51.4,50.6,30.42,NW,315,0.0,0.0,97,0.00,,CLR,0.00,VWS V14.01,2013-01-10 12:30:00,
2013-01-10 07:39:00,50.3,49.5,30.40,NW,315,0.0,0.0,97,0.00,,CLR,0.00,VWS V14.01,2013-01-10 12:39:00,
2013-01-10 07:44:00,50.3,49.5,30.40,NW,315,0.0,0.0,97,0.00,,CLR,0.00,VWS V14.01,2013-01-10 12:44:00,
2013-01-10 07:45:00,51.5,50.7,30.41,NW,315,0.0,0.0,97,0.00,,CLR,0.00,VWS V14.01,2013-01-10 12:45:00,
2013-01-10 07:49:00,50.3,49.5,30.40,NW,315,0.0,0.0,97,0.00,,CLR,0.00,VWS V14.01,2013-01-10 12:49:00,
2013-01-10 07:59:00,50.2,49.4,30.40,NW,315,0.0,0.0,97,0.00,,CLR,0.00,VWS V14.01,2013-01-10 12:59:00,
2013-01-10 08:00:00,52.0,51.2,30.42,NW,315,0.0,0.0,97,0.00,,CLR,0.00,VWS V14.01,2013-01-10 13:00:00,
2013-01-10 08:04:00,50.4,49.6,30.40,NW,315,0.0,0.0,97,0.00,,,0.00,VWS V14.01,2013-01-10 13:04:00,
2013-01-10 08:14:00,50.8,50.0,30.41,NW,315,0.0,0.0,97,0.00,,,0.00,VWS V14.01,2013-01-10 13:14:00,
2013-01-10 08:15:00,52.4,51.6,30.42,NW,315,0.0,0.0,97,0.00,,CLR,0.00,VWS V14.01,2013-01-10 13:15:00,
2013-01-10 08:19:00,51.0,50.2,30.41,NW,315,0.0,0.0,97,0.00,,,0.00,VWS V14.01,2013-01-10 13:19:00,
2013-01-10 08:29:00,51.3,50.5,30.42,NW,315,0.0,0.0,97,0.00,,,0.00,VWS V14.01,2013-01-10 13:29:00,
2013-01-10 08:30:00,53.2,52.4,30.42,NW,315,0.0,0.0,97,0.00,,CLR,0.00,VWS V14.01,2013-01-10 13:30:00,
2013-01-10 08:34:00,51.4,50.6,30.41,NW,315,0.0,0.0,97,0.00,,,0.00,VWS V14.01,2013-01-10 13:34:00,
2013-01-10 08:44:00,51.5,50.7,30.41,NW,315,0.0,0.0,97,0.00,,,0.00,VWS V14.01,2013-01-10 13:44:00,
2013-01-10 08:45:00,55.0,54.5,30.42,NW,315,0.0,0.0,98,0.00,,CLR,0.00,VWS V14.01,2013-01-10 13:45:00,
2013-01-10 08:49:00,51.6,50.8,30.41,NW,315,0.0,0.0,97,0.00,,,0.00,VWS V14.01,2013-01-10 13:49:00,
2013-01-10 08:59:00,51.9,51.1,30.42,NW,315,0.0,0.0,97,0.00,,,0.00,VWS V14.01,2013-01-10 13:59:00,
2013-01-10 09:00:00,56.7,55.9,30.42,NW,315,0.0,1.0,97,0.00,,CLR,0.00,VWS V14.01,2013-01-10 14:00:00,
2013-01-10 09:09:00,52.3,51.5,30.42,NW,315,0.0,0.0,97,0.00,,CLR,0.00,VWS V14.01,2013-01-10 14:09:00,
2013-01-10 09:14:00,52.4,51.6,30.42,NW,315,0.0,0.0,97,0.00,,CLR,0.00,VWS V14.01,2013-01-10 14:14:00,
2013-01-10 09:15:00,58.7,56.4,30.41,NNW,340,0.0,5.0,92,0.00,,CLR,0.00,VWS V14.01,2013-01-10 14:15:00,
2013-01-10 09:24:00,52.7,51.9,30.42,NW,315,0.0,0.0,97,0.00,,CLR,0.00,VWS V14.01,2013-01-10 14:24:00,
2013-01-10 09:29:00,53.1,52.3,30.42,NW,315,0.0,0.0,97,0.00,,CLR,0.00,VWS V14.01,2013-01-10 14:29:00,
2013-01-10 09:30:00,60.3,56.7,30.41,NNW,340,0.0,2.0,88,0.00,,CLR,0.00,VWS V14.01,2013-01-10 14:30:00,
2013-01-10 09:34:00,53.7,52.9,30.42,NW,315,0.0,0.0,97,0.00,,CLR,0.00,VWS V14.01,2013-01-10 14:34:00,
2013-01-10 09:44:00,54.9,54.3,30.42,NW,315,0.0,0.0,98,0.00,,CLR,0.00,VWS V14.01,2013-01-10 14:44:00,
2013-01-10 09:45:00,61.9,57.0,30.40,NW,324,0.0,2.0,84,0.00,,CLR,0.00,VWS V14.01,2013-01-10 14:45:00,
2013-01-10 09:49:00,55.4,54.8,30.42,NW,315,0.0,1.0,98,0.00,,CLR,0.00,VWS V14.01,2013-01-10 14:49:00,
2013-01-10 09:59:00,56.6,55.8,30.42,NW,315,0.0,1.0,97,0.00,,CLR,0.00,VWS V14.01,2013-01-10 14:59:00,
2013-01-10 10:00:00,63.4,57.1,30.40,NNE,24,0.0,4.0,80,0.00,,CLR,0.00,VWS V14.01,2013-01-10 15:00:00,
2013-01-10 10:04:00,57.1,56.0,30.42,NW,309,0.0,2.0,96,0.00,,CLR,0.00,VWS V14.01,2013-01-10 15:04:00,
2013-01-10 10:14:00,58.5,56.5,30.41,NNW,340,0.0,5.0,93,0.00,,CLR,0.00,VWS V14.01,2013-01-10 15:14:00,
2013-01-10 10:15:00,64.5,57.5,30.39,NNE,17,0.0,2.0,78,0.00,,CLR,0.00,VWS V14.01,2013-01-10 15:15:00,
2013-01-10 10:19:00,59.0,56.7,30.41,NNW,340,0.0,2.0,92,0.00,,CLR,0.00,VWS V14.01,2013-01-10 15:19:00,
2013-01-10 10:24:00,59.6,56.7,30.41,NNW,340,0.0,2.0,90,0.00,,CLR,0.00,VWS V14.01,2013-01-10 15:24:00,
2013-01-10 10:29:00,60.2,57.0,30.41,NNW,340,0.0,2.0,89,0.00,,CLR,0.00,VWS V14.01,2013-01-10 15:29:00,
2013-01-10 10:30:00,65.6,57.5,30.38,NE,56,1.0,4.0,75,0.00,,CLR,0.00,VWS V14.01,2013-01-10 15:30:00,
2013-01-10 10:39:00,61.3,57.1,30.40,NNW,340,0.0,1.0,86,0.00,,CLR,0.00,VWS V14.01,2013-01-10 15:39:00,
2013-01-10 10:45:00,61.9,57.0,30.40,NW,324,0.0,2.0,84,0.00,,CLR,0.00,VWS V14.01,2013-01-10 15:45:00,
2013-01-10 10:54:00,62.8,57.2,30.40,North,360,0.0,2.0,82,0.00,,CLR,0.00,VWS V14.01,2013-01-10 15:54:00,
2013-01-10 11:00:00,63.4,57.1,30.40,NNE,24,0.0,4.0,80,0.00,,CLR,0.00,VWS V14.01,2013-01-10 16:00:00,
2013-01-10 11:09:00,64.1,57.5,30.39,NNE,17,1.0,2.0,79,0.00,,CLR,0.00,VWS V14.01,2013-01-10 16:09:00,
2013-01-10 11:15:00,64.5,57.5,30.39,NNE,17,0.0,2.0,78,0.00,,CLR,0.00,VWS V14.01,2013-01-10 16:15:00,
2013-01-10 11:24:00,65.0,57.3,30.39,NW,310,0.0,4.0,76,0.00,,CLR,0.00,VWS V14.01,2013-01-10 16:24:00,
2013-01-10 11:30:00,65.6,57.5,30.38,NE,56,1.0,4.0,75,0.00,,CLR,0.00,VWS V14.01,2013-01-10 16:30:00,
2013-01-10 11:38:00,66.2,56.9,30.37,NE,40,2.0,3.0,72,0.00,,CLR,0.00,VWS V14.01,2013-01-10 16:38:00,
2013-01-10 11:45:00,66.8,57.9,30.37,NE,41,0.0,3.0,73,0.00,,CLR,0.00,VWS V14.01,2013-01-10 16:45:00,
2013-01-10 11:53:00,67.4,57.3,30.37,NW,321,6.0,6.0,70,0.00,,CLR,0.00,VWS V14.01,2013-01-10 16:53:00,
2013-01-10 11:58:00,68.1,57.6,30.37,NNW,329,0.0,6.0,69,0.00,,CLR,0.00,VWS V14.01,2013-01-10 16:58:00,
2013-01-10 12:00:00,70.1,57.4,30.34,ESE,118,0.0,2.0,64,0.00,,CLR,0.00,VWS V14.01,2013-01-10 17:00:00,
2013-01-10 12:03:00,68.5,57.5,30.36,WNW,289,1.0,2.0,68,0.00,,CLR,0.00,VWS V14.01,2013-01-10 17:03:00,
2013-01-10 12:13:00,69.3,57.5,30.36,NW,323,0.0,4.0,66,0.00,,CLR,0.00,VWS V14.01,2013-01-10 17:13:00,
2013-01-10 12:15:00,70.5,57.8,30.34,ESE,118,0.0,2.0,64,0.00,,CLR,0.00,VWS V14.01,2013-01-10 17:15:00,
2013-01-10 12:18:00,69.4,57.1,30.35,WNW,294,1.0,3.0,65,0.00,,CLR,0.00,VWS V14.01,2013-01-10 17:18:00,
2013-01-10 12:28:00,69.8,57.1,30.35,SE,130,0.0,4.0,64,0.00,,CLR,0.00,VWS V14.01,2013-01-10 17:28:00,
2013-01-10 12:30:00,70.6,57.8,30.34,ESE,118,0.0,0.0,64,0.00,,CLR,0.00,VWS V14.01,2013-01-10 17:30:00,
2013-01-10 12:33:00,69.8,57.1,30.35,NE,40,0.0,2.0,64,0.00,,CLR,0.00,VWS V14.01,2013-01-10 17:33:00,
2013-01-10 12:38:00,69.8,57.5,30.35,North,360,0.0,2.0,65,0.00,,CLR,0.00,VWS V14.01,2013-01-10 17:38:00,
2013-01-10 12:45:00,69.8,57.5,30.34,North,5,0.0,2.0,65,0.00,,CLR,0.00,VWS V14.01,2013-01-10 17:45:00,
2013-01-10 12:53:00,70.0,58.1,30.34,SSE,153,0.0,2.0,66,0.00,,CLR,0.00,VWS V14.01,2013-01-10 17:53:00,
2013-01-10 13:00:00,70.1,57.4,30.34,ESE,118,0.0,2.0,64,0.00,,CLR,0.00,VWS V14.01,2013-01-10 18:00:00,
2013-01-10 13:08:00,70.4,57.2,30.34,ESE,118,0.0,1.0,63,0.00,,OVC047,0.00,VWS V14.01,2013-01-10 18:08:00,
2013-01-10 13:13:00,70.6,57.4,30.34,ESE,118,1.0,1.0,63,0.00,,OVC047,0.00,VWS V14.01,2013-01-10 18:13:00,
2013-01-10 13:15:00,71.0,58.7,30.34,ESE,118,0.0,0.0,65,0.00,,CLR,0.00,VWS V14.01,2013-01-10 18:15:00,
2013-01-10 13:18:00,70.5,57.8,30.34,ESE,118,0.0,0.0,64,0.00,,OVC047,0.00,VWS V14.01,2013-01-10 18:18:00,
2013-01-10 13:28:00,70.5,57.8,30.34,ESE,118,0.0,0.0,64,0.00,,OVC047,0.00,VWS V14.01,2013-01-10 18:28:00,
2013-01-10 13:30:00,71.3,58.1,30.34,ESE,118,0.0,2.0,63,0.00,,CLR,0.00,VWS V14.01,2013-01-10 18:30:00,
2013-01-10 13:33:00,70.7,57.9,30.34,ESE,118,0.0,0.0,64,0.00,,OVC047,0.00,VWS V14.01,2013-01-10 18:33:00,
2013-01-10 13:43:00,71.0,58.2,30.34,ESE,118,0.0,2.0,64,0.00,,OVC047,0.00,VWS V14.01,2013-01-10 18:43:00,
2013-01-10 13:45:00,71.6,58.3,30.33,ESE,118,0.0,1.0,63,0.00,,CLR,0.00,VWS V14.01,2013-01-10 18:45:00,
2013-01-10 13:48:00,71.0,58.7,30.34,ESE,118,0.0,0.0,65,0.00,,OVC047,0.00,VWS V14.01,2013-01-10 18:48:00,
2013-01-10 13:53:00,71.0,58.7,30.34,ESE,118,0.0,0.0,65,0.00,,OVC047,0.00,VWS V14.01,2013-01-10 18:53:00,
2013-01-10 14:00:00,71.1,58.3,30.34,ESE,118,0.0,0.0,64,0.00,,OVC047,0.00,VWS V14.01,2013-01-10 19:00:00,
2013-01-10 14:08:00,71.1,58.8,30.34,ESE,118,0.0,0.0,65,0.00,,OVC070,0.00,VWS V14.01,2013-01-10 19:08:00,
2013-01-10 14:15:00,71.0,58.7,30.34,ESE,118,0.0,0.0,65,0.00,,OVC070,0.00,VWS V14.01,2013-01-10 19:15:00,
2013-01-10 14:23:00,71.2,58.8,30.34,ESE,118,0.0,0.0,65,0.00,,OVC070,0.00,VWS V14.01,2013-01-10 19:23:00,
2013-01-10 14:28:00,71.3,58.5,30.34,ESE,118,0.0,2.0,64,0.00,,OVC070,0.00,VWS V14.01,2013-01-10 19:28:00,
2013-01-10 14:30:00,70.8,58.5,30.33,ESE,106,0.0,1.0,65,0.00,,CLR,0.00,VWS V14.01,2013-01-10 19:30:00,
2013-01-10 14:33:00,71.3,58.1,30.33,ESE,118,0.0,1.0,63,0.00,,OVC070,0.00,VWS V14.01,2013-01-10 19:33:00,
2013-01-10 14:43:00,71.5,58.7,30.33,ESE,118,0.0,1.0,64,0.00,,OVC070,0.00,VWS V14.01,2013-01-10 19:43:00,
2013-01-10 14:45:00,70.8,58.5,30.33,ESE,107,0.0,2.0,65,0.00,,CLR,0.00,VWS V14.01,2013-01-10 19:45:00,
2013-01-10 14:53:00,71.9,58.6,30.33,ESE,118,1.0,1.0,63,0.00,,OVC070,0.00,VWS V14.01,2013-01-10 19:53:00,
2013-01-10 14:58:00,71.9,58.6,30.33,ESE,107,0.0,3.0,63,0.00,,OVC070,0.00,VWS V14.01,2013-01-10 19:58:00,
2013-01-10 15:00:00,70.3,58.4,30.33,ESE,106,0.0,2.0,66,0.00,,CLR,0.00,VWS V14.01,2013-01-10 20:00:00,
2013-01-10 15:08:00,71.6,58.3,30.33,ESE,106,0.0,1.0,63,0.00,,BKN100,0.00,VWS V14.01,2013-01-10 20:08:00,
2013-01-10 15:13:00,71.4,58.6,30.33,ESE,106,0.0,1.0,64,0.00,,BKN100,0.00,VWS V14.01,2013-01-10 20:13:00,
2013-01-10 15:15:00,69.4,58.0,30.33,ESE,107,0.0,2.0,67,0.00,,CLR,0.00,VWS V14.01,2013-01-10 20:15:00,
2013-01-10 15:18:00,71.2,58.4,30.33,ESE,107,0.0,0.0,64,0.00,,BKN100,0.00,VWS V14.01,2013-01-10 20:18:00,
2013-01-10 15:28:00,70.8,58.5,30.33,ESE,107,0.0,1.0,65,0.00,,BKN100,0.00,VWS V14.01,2013-01-10 20:28:00,
2013-01-10 15:30:00,68.7,58.1,30.33,ESE,107,0.0,1.0,69,0.00,,CLR,0.00,VWS V14.01,2013-01-10 20:30:00,
2013-01-10 15:33:00,70.8,58.0,30.33,ESE,107,0.0,2.0,64,0.00,,BKN100,0.00,VWS V14.01,2013-01-10 20:33:00,
2013-01-10 15:43:00,70.8,58.5,30.33,ESE,106,0.0,2.0,65,0.00,,BKN100,0.00,VWS V14.01,2013-01-10 20:43:00,
2013-01-10 15:45:00,68.0,57.9,30.34,ESE,103,1.0,2.0,70,0.00,,CLR,0.00,VWS V14.01,2013-01-10 20:45:00,
2013-01-10 15:47:00,70.8,58.5,30.33,ESE,106,1.0,2.0,65,0.00,,BKN100,0.00,VWS V14.01,2013-01-10 20:47:00,
2013-01-10 15:52:00,70.7,58.4,30.33,ESE,107,1.0,2.0,65,0.00,,BKN100,0.00,VWS V14.01,2013-01-10 20:52:00,
2013-01-10 16:00:00,70.3,58.4,30.33,ESE,106,0.0,2.0,66,0.00,,BKN100,0.00,VWS V14.01,2013-01-10 21:00:00,
2013-01-10 16:07:00,69.9,58.5,30.33,ESE,106,0.0,2.0,67,0.00,,OVC100,0.00,VWS V14.01,2013-01-10 21:07:00,
2013-01-10 16:12:00,69.6,58.6,30.33,ESE,106,0.0,2.0,68,0.00,,OVC100,0.00,VWS V14.01,2013-01-10 21:12:00,
2013-01-10 16:15:00,66.5,56.4,30.34,SE,132,0.0,2.0,70,0.00,,CLR,0.00,VWS V14.01,2013-01-10 21:15:00,
2013-01-10 16:17:00,69.3,57.9,30.33,ESE,107,0.0,1.0,67,0.00,,OVC100,0.00,VWS V14.01,2013-01-10 21:17:00,
2013-01-10 16:27:00,68.9,58.3,30.33,ESE,107,0.0,1.0,69,0.00,,OVC100,0.00,VWS V14.01,2013-01-10 21:27:00,
2013-01-10 16:30:00,65.7,56.0,30.35,ESE,118,0.0,2.0,71,0.00,,CLR,0.00,VWS V14.01,2013-01-10 21:30:00,
2013-01-10 16:32:00,68.6,58.0,30.33,ESE,107,0.0,1.0,69,0.00,,OVC100,0.00,VWS V14.01,2013-01-10 21:32:00,
2013-01-10 16:42:00,68.1,58.0,30.34,ESE,103,2.0,2.0,70,0.00,,OVC100,0.00,VWS V14.01,2013-01-10 21:42:00,
2013-01-10 16:45:00,65.0,55.8,30.35,ESE,118,0.0,2.0,72,0.00,,CLR,0.00,VWS V14.01,2013-01-10 21:45:00,
2013-01-10 16:47:00,67.9,57.8,30.34,ESE,103,0.0,2.0,70,0.00,,OVC100,0.00,VWS V14.01,2013-01-10 21:47:00,
2013-01-10 16:52:00,67.7,57.6,30.34,ESE,103,1.0,2.0,70,0.00,,OVC100,0.00,VWS V14.01,2013-01-10 21:52:00,
2013-01-10 17:00:00,67.2,57.1,30.34,SE,136,1.0,4.0,70,0.00,,OVC100,0.00,VWS V14.01,2013-01-10 22:00:00,
2013-01-10 17:07:00,66.8,56.7,30.34,SE,132,0.0,2.0,70,0.00,,OVC042,0.00,VWS V14.01,2013-01-10 22:07:00,
2013-01-10 17:12:00,66.6,56.5,30.34,SE,132,0.0,2.0,70,0.00,,OVC042,0.00,VWS V14.01,2013-01-10 22:12:00,
2013-01-10 17:15:00,63.5,56.9,30.36,ESE,117,0.0,1.0,79,0.00,,CLR,0.00,VWS V14.01,2013-01-10 22:15:00,
2013-01-10 17:17:00,66.4,56.3,30.35,SE,132,0.0,1.0,70,0.00,,OVC042,0.00,VWS V14.01,2013-01-10 22:17:00,
2013-01-10 17:27:00,65.9,56.2,30.35,SE,132,0.0,2.0,71,0.00,,OVC042,0.00,VWS V14.01,2013-01-10 22:27:00,
2013-01-10 17:30:00,61.9,55.7,30.36,ESE,117,0.0,2.0,80,0.00,,CLR,0.00,VWS V14.01,2013-01-10 22:30:00,
2013-01-10 17:32:00,65.6,56.0,30.35,ESE,118,0.0,0.0,71,0.00,,OVC042,0.00,VWS V14.01,2013-01-10 22:32:00,
2013-01-10 17:42:00,65.0,55.4,30.35,ESE,118,0.0,2.0,71,0.00,,OVC042,0.00,VWS V14.01,2013-01-10 22:42:00,
2013-01-10 17:45:00,61.0,56.1,30.35,East,93,0.0,1.0,84,0.00,,CLR,0.00,VWS V14.01,2013-01-10 22:45:00,
2013-01-10 17:47:00,64.9,55.7,30.34,ESE,118,0.0,0.0,72,0.00,,OVC042,0.00,VWS V14.01,2013-01-10 22:47:00,
2013-01-10 17:57:00,64.7,55.5,30.35,ESE,117,2.0,2.0,72,0.00,,OVC042,0.00,VWS V14.01,2013-01-10 22:57:00,
2013-01-10 18:00:00,60.4,56.5,30.36,East,93,0.0,0.0,87,0.00,,CLR,0.00,VWS V14.01,2013-01-10 23:00:00,
2013-01-10 18:02:00,64.6,55.4,30.35,ESE,117,0.0,1.0,72,0.00,,OVC055,0.00,VWS V14.01,2013-01-10 23:02:00,
2013-01-10 18:12:00,64.0,56.7,30.36,ESE,117,0.0,1.0,77,0.00,,OVC055,0.00,VWS V14.01,2013-01-10 23:12:00,
2013-01-10 18:15:00,60.1,56.5,30.36,East,93,0.0,2.0,88,0.00,,CLR,0.00,VWS V14.01,2013-01-10 23:15:00,
2013-01-10 18:17:00,63.2,56.9,30.36,ESE,117,0.0,0.0,80,0.00,,OVC055,0.00,VWS V14.01,2013-01-10 23:17:00,
2013-01-10 18:27:00,62.0,55.8,30.36,ESE,117,0.0,2.0,80,0.00,,OVC055,0.00,VWS V14.01,2013-01-10 23:27:00,
2013-01-10 18:30:00,59.4,56.8,30.36,East,88,0.0,2.0,91,0.01,,CLR,0.01,VWS V14.01,2013-01-10 23:30:00,
2013-01-10 18:32:00,61.8,55.9,30.36,ESE,117,0.0,0.0,81,0.00,,OVC055,0.00,VWS V14.01,2013-01-10 23:32:00,
2013-01-10 18:42:00,61.1,55.9,30.36,East,92,0.0,1.0,83,0.00,,OVC055,0.00,VWS V14.01,2013-01-10 23:42:00,
2013-01-10 18:45:00,58.8,56.8,30.36,East,88,0.0,1.0,93,0.02,,CLR,0.02,VWS V14.01,2013-01-10 23:45:00,
2013-01-10 18:47:00,61.0,56.1,30.36,East,92,0.0,0.0,84,0.00,,OVC055,0.00,VWS V14.01,2013-01-10 23:47:00,
2013-01-10 18:52:00,60.8,56.6,30.36,East,93,0.0,0.0,86,0.00,,OVC055,0.00,VWS V14.01,2013-01-10 23:52:00,
2013-01-10 18:57:00,60.5,56.6,30.36,East,93,0.0,0.0,87,0.00,,OVC055,0.00,VWS V14.01,2013-01-10 23:57:00,
2013-01-10 19:00:00,58.2,56.5,30.35,SSE,164,0.0,1.0,94,0.02,,CLR,0.02,VWS V14.01,2013-01-11 00:00:00,
2013-01-10 19:07:00,60.0,56.4,30.36,East,93,1.0,1.0,88,0.00,,-RA,0.00,VWS V14.01,2013-01-11 00:07:00,
2013-01-10 19:12:00,60.0,56.4,30.36,East,92,0.0,1.0,88,0.00,,-RA,0.00,VWS V14.01,2013-01-11 00:12:00,
2013-01-10 19:15:00,57.9,56.5,30.35,SSE,164,0.0,0.0,95,0.02,,CLR,0.02,VWS V14.01,2013-01-11 00:15:00,
2013-01-10 19:17:00,60.0,56.4,30.36,East,92,0.0,1.0,88,0.00,,-RA,0.00,VWS V14.01,2013-01-11 00:17:00,
2013-01-10 19:27:00,59.6,56.7,30.36,East,88,0.0,2.0,90,0.01,,-RA,0.01,VWS V14.01,2013-01-11 00:27:00,
2013-01-10 19:30:00,57.8,56.4,30.35,SSE,164,0.0,0.0,95,0.03,,CLR,0.03,VWS V14.01,2013-01-11 00:30:00,
2013-01-10 19:32:00,59.2,56.6,30.36,East,88,0.0,0.0,91,0.01,,-RA,0.01,VWS V14.01,2013-01-11 00:32:00,
2013-01-10 19:37:00,59.0,56.7,30.36,East,88,0.0,0.0,92,0.01,,-RA,0.01,VWS V14.01,2013-01-11 00:37:00,
2013-01-10 19:42:00,59.0,56.7,30.36,East,88,0.0,1.0,92,0.01,,-RA,0.01,VWS V14.01,2013-01-11 00:42:00,
2013-01-10 19:45:00,57.8,56.4,30.35,SSE,164,0.0,0.0,95,0.02,,CLR,0.03,VWS V14.01,2013-01-11 00:45:00,
2013-01-10 19:52:00,58.5,56.5,30.35,East,88,0.0,1.0,93,0.02,,-RA,0.02,VWS V14.01,2013-01-11 00:52:00,
2013-01-10 19:57:00,58.3,56.6,30.35,SSE,164,0.0,1.0,94,0.02,,-RA,0.02,VWS V14.01,2013-01-11 00:57:00,
2013-01-10 20:00:00,57.9,56.8,30.35,SSE,164,0.0,0.0,96,0.01,,CLR,0.03,VWS V14.01,2013-01-11 01:00:00,
2013-01-10 20:02:00,58.2,56.5,30.35,SSE,164,0.0,0.0,94,0.02,,,0.02,VWS V14.01,2013-01-11 01:02:00,
2013-01-10 20:12:00,58.0,56.3,30.35,SSE,164,0.0,0.0,94,0.02,,,0.02,VWS V14.01,2013-01-11 01:12:00,
2013-01-10 20:15:00,57.8,56.7,30.34,SSE,164,0.0,0.0,96,0.01,,CLR,0.03,VWS V14.01,2013-01-11 01:15:00,
2013-01-10 20:17:00,57.9,56.5,30.35,SSE,164,0.0,0.0,95,0.02,,,0.02,VWS V14.01,2013-01-11 01:17:00,
2013-01-10 20:27:00,57.8,56.4,30.35,SSE,164,0.0,0.0,95,0.03,,,0.03,VWS V14.01,2013-01-11 01:27:00,
2013-01-10 20:30:00,57.8,56.7,30.34,SSE,164,0.0,0.0,96,0.01,,CLR,0.03,VWS V14.01,2013-01-11 01:30:00,
2013-01-10 20:32:00,57.8,56.4,30.35,SSE,164,0.0,0.0,95,0.02,,OVC013,0.03,VWS V14.01,2013-01-11 01:32:00,
2013-01-10 20:41:00,57.8,56.4,30.35,SSE,164,0.0,0.0,95,0.02,,OVC013,0.03,VWS V14.01,2013-01-11 01:41:00,
2013-01-10 20:45:00,57.8,56.7,30.33,SSE,164,0.0,0.0,96,0.00,,CLR,0.03,VWS V14.01,2013-01-11 01:45:00,
2013-01-10 20:46:00,57.8,56.4,30.35,SSE,164,0.0,0.0,95,0.01,,OVC013,0.03,VWS V14.01,2013-01-11 01:46:00,
2013-01-10 20:51:00,57.8,56.7,30.35,SSE,164,0.0,0.0,96,0.01,,OVC013,0.03,VWS V14.01,2013-01-11 01:51:00,
2013-01-10 21:00:00,57.9,56.8,30.35,SSE,164,0.0,0.0,96,0.01,,OVC013,0.03,VWS V14.01,2013-01-11 02:00:00,
2013-01-10 21:06:00,57.9,56.8,30.35,SSE,164,0.0,0.0,96,0.01,,OVC009,0.03,VWS V14.01,2013-01-11 02:06:00,
2013-01-10 21:15:00,57.8,56.7,30.34,SSE,164,0.0,0.0,96,0.01,,OVC009,0.03,VWS V14.01,2013-01-11 02:15:00,
2013-01-10 21:21:00,57.9,56.8,30.34,SSE,164,0.0,0.0,96,0.01,,OVC009,0.03,VWS V14.01,2013-01-11 02:21:00,
2013-01-10 21:30:00,57.8,56.7,30.34,SSE,164,0.0,0.0,96,0.01,,OVC009,0.03,VWS V14.01,2013-01-11 02:30:00,
2013-01-10 21:36:00,57.9,56.8,30.34,SSE,164,0.0,0.0,96,0.00,,OVC005,0.03,VWS V14.01,2013-01-11 02:36:00,
2013-01-10 21:45:00,57.8,56.7,30.33,SSE,164,0.0,0.0,96,0.00,,OVC005,0.03,VWS V14.01,2013-01-11 02:45:00,
2013-01-10 21:51:00,57.8,56.7,30.33,SSE,164,0.0,0.0,96,0.00,,OVC005,0.03,VWS V14.01,2013-01-11 02:51:00,
2013-01-10 22:00:00,57.8,56.7,30.33,SSE,150,0.0,2.0,96,0.00,,OVC005,0.03,VWS V14.01,2013-01-11 03:00:00,
2013-01-10 22:06:00,57.8,56.7,30.33,SSE,150,0.0,0.0,96,0.00,,OVC005,0.03,VWS V14.01,2013-01-11 03:06:00,
2013-01-10 22:11:00,57.8,56.7,30.33,SSE,150,0.0,1.0,96,0.00,,OVC005,0.03,VWS V14.01,2013-01-11 03:11:00,
2013-01-10 22:15:00,57.5,56.7,30.33,South,169,0.0,0.0,97,0.00,,CLR,0.03,VWS V14.01,2013-01-11 03:15:00,
2013-01-10 22:21:00,57.8,56.7,30.33,SSE,150,0.0,1.0,96,0.00,,OVC005,0.03,VWS V14.01,2013-01-11 03:21:00,
2013-01-10 22:26:00,57.7,56.6,30.33,SSE,150,0.0,1.0,96,0.00,,OVC005,0.03,VWS V14.01,2013-01-11 03:26:00,
2013-01-10 22:30:00,57.5,56.7,30.32,South,169,0.0,1.0,97,0.00,,CLR,0.03,VWS V14.01,2013-01-11 03:30:00,
2013-01-10 22:31:00,57.7,56.9,30.33,SSE,149,0.0,0.0,97,0.00,,OVC005,0.03,VWS V14.01,2013-01-11 03:31:00,
2013-01-10 22:41:00,57.7,56.9,30.33,South,169,0.0,1.0,97,0.00,,OVC005,0.03,VWS V14.01,2013-01-11 03:41:00,
2013-01-10 22:45:00,57.3,56.5,30.32,SE,133,0.0,2.0,97,0.00,,CLR,0.03,VWS V14.01,2013-01-11 03:45:00,
2013-01-10 22:51:00,57.6,56.8,30.33,South,169,0.0,1.0,97,0.00,,OVC005,0.03,VWS V14.01,2013-01-11 03:51:00,
2013-01-10 22:56:00,57.6,56.8,30.33,South,169,0.0,1.0,97,0.00,,OVC005,0.03,VWS V14.01,2013-01-11 03:56:00,
2013-01-10 23:00:00,57.1,56.3,30.31,SSE,153,0.0,2.0,97,0.00,,CLR,0.03,VWS V14.01,2013-01-11 04:00:00,
2013-01-10 23:06:00,57.6,56.8,30.33,South,169,0.0,0.0,97,0.00,,OVC005,0.03,VWS V14.01,2013-01-11 04:06:00,
2013-01-10 23:11:00,57.6,56.8,30.33,South,169,0.0,0.0,97,0.00,,OVC005,0.03,VWS V14.01,2013-01-11 04:11:00,
2013-01-10 23:15:00,56.9,56.1,30.31,SSE,153,0.0,1.0,97,0.00,,CLR,0.00,VWS V14.01,2013-01-11 04:15:00,
2013-01-10 23:21:00,57.5,56.7,30.32,South,169,0.0,1.0,97,0.00,,OVC005,0.03,VWS V14.01,2013-01-11 04:21:00,
2013-01-10 23:26:00,57.5,56.7,30.32,South,169,0.0,1.0,97,0.00,,OVC005,0.03,VWS V14.01,2013-01-11 04:26:00,
2013-01-10 23:30:00,56.5,55.7,30.30,ESE,118,0.0,1.0,97,0.00,,CLR,0.00,VWS V14.01,2013-01-11 04:30:00,
2013-01-10 23:31:00,57.5,56.7,30.32,South,169,0.0,0.0,97,0.00,,,0.03,VWS V14.01,2013-01-11 04:31:00,
2013-01-10 23:41:00,57.4,56.6,30.32,SSE,168,0.0,1.0,97,0.00,,,0.03,VWS V14.01,2013-01-11 04:41:00,
2013-01-10 23:45:00,56.1,55.3,30.29,ESE,119,0.0,1.0,97,0.00,,CLR,0.00,VWS V14.01,2013-01-11 04:45:00,
2013-01-10 23:46:00,57.3,56.5,30.31,SE,133,0.0,1.0,97,0.00,,,0.03,VWS V14.01,2013-01-11 04:46:00,
2013-01-10 23:51:00,57.3,56.5,30.31,SE,144,0.0,2.0,97,0.00,,,0.03,VWS V14.01,2013-01-11 04:51:00,